sensor_id;sensor_type;location;lat;lon;timestamp;pressure;altitude;pressure_sealevel;temperature;humidity
26865;BME280;40618;51.166;10.322;2023-03-21T00:01:14;97534.66;;;7.09;73.12
26865;BME280;40618;51.166;10.322;2023-03-21T00:03:40;97529.47;;;7.10;72.85
26865;BME280;40618;51.166;10.322;2023-03-21T00:06:09;97528.66;;;7.08;73.26
26865;BME280;40618;51.166;10.322;2023-03-21T00:08:36;97526.09;;;7.08;72.92
26865;BME280;40618;51.166;10.322;2023-03-21T00:11:05;97525.28;;;7.05;73.06
26865;BME280;40618;51.166;10.322;2023-03-21T00:13:33;97527.88;;;7.03;73.18
26865;BME280;40618;51.166;10.322;2023-03-21T00:16:14;97521.84;;;7.04;72.93
26865;BME280;40618;51.166;10.322;2023-03-21T00:18:46;97529.59;;;7.04;73.08
26865;BME280;40618;51.166;10.322;2023-03-21T00:21:17;97520.16;;;7.03;72.99
26865;BME280;40618;51.166;10.322;2023-03-21T00:23:45;97525.31;;;7.02;73.44
26865;BME280;40618;51.166;10.322;2023-03-21T00:26:12;97520.19;;;7.02;72.59
26865;BME280;40618;51.166;10.322;2023-03-21T00:28:40;97515.91;;;7.01;73.20
26865;BME280;40618;51.166;10.322;2023-03-21T00:31:07;97520.19;;;7.02;72.58
26865;BME280;40618;51.166;10.322;2023-03-21T00:33:35;97516.72;;;7.03;72.79
26865;BME280;40618;51.166;10.322;2023-03-21T00:36:03;97521.84;;;7.04;72.67
26865;BME280;40618;51.166;10.322;2023-03-21T00:38:30;97520.13;;;7.05;73.18
26865;BME280;40618;51.166;10.322;2023-03-21T00:40:56;97519.22;;;7.07;73.24
26865;BME280;40618;51.166;10.322;2023-03-21T00:43:21;97514.91;;;7.08;73.01
26865;BME280;40618;51.166;10.322;2023-03-21T00:45:55;97514.09;;;7.06;72.53
26865;BME280;40618;51.166;10.322;2023-03-21T00:48:25;97508.97;;;7.06;72.80
26865;BME280;40618;51.166;10.322;2023-03-21T00:50:53;97506.38;;;7.06;72.75
26865;BME280;40618;51.166;10.322;2023-03-21T00:53:21;97505.53;;;7.05;73.30
26865;BME280;40618;51.166;10.322;2023-03-21T00:55:48;97506.38;;;7.06;73.24
26865;BME280;40618;51.166;10.322;2023-03-21T00:58:14;97504.69;;;7.05;73.37
26865;BME280;40618;51.166;10.322;2023-03-21T01:00:40;97503.78;;;7.07;73.15
26865;BME280;40618;51.166;10.322;2023-03-21T01:03:09;97504.66;;;7.06;72.98
26865;BME280;40618;51.166;10.322;2023-03-21T01:05:42;97506.38;;;7.06;72.92
26865;BME280;40618;51.166;10.322;2023-03-21T01:08:30;97497.75;;;7.10;73.58
26865;BME280;40618;51.166;10.322;2023-03-21T01:11:03;97498.59;;;7.09;73.34
26865;BME280;40618;51.166;10.322;2023-03-21T01:13:31;97492.63;;;7.08;73.18
26865;BME280;40618;51.166;10.322;2023-03-21T01:15:57;97493.44;;;7.09;72.90
26865;BME280;40618;51.166;10.322;2023-03-21T01:18:26;97490.94;;;7.06;73.19
26865;BME280;40618;51.166;10.322;2023-03-21T01:20:58;97493.47;;;7.07;73.37
26865;BME280;40618;51.166;10.322;2023-03-21T01:23:26;97484.88;;;7.08;73.54
26865;BME280;40618;51.166;10.322;2023-03-21T01:25:54;97483.19;;;7.07;73.17
26865;BME280;40618;51.166;10.322;2023-03-21T01:28:21;97488.34;;;7.06;73.31
26865;BME280;40618;51.166;10.322;2023-03-21T01:30:50;97488.34;;;7.07;73.51
26865;BME280;40618;51.166;10.322;2023-03-21T01:33:17;97484.03;;;7.06;73.08
26865;BME280;40618;51.166;10.322;2023-03-21T01:35:43;97490.13;;;7.02;73.08
26865;BME280;40618;51.166;10.322;2023-03-21T01:38:10;97478.16;;;7.01;72.83
26865;BME280;40618;51.166;10.322;2023-03-21T01:40:37;97485.88;;;7.00;73.66
26865;BME280;40618;51.166;10.322;2023-03-21T01:43:16;97479.88;;;6.99;73.35
26865;BME280;40618;51.166;10.322;2023-03-21T01:48:48;97485.91;;;6.97;73.43
26865;BME280;40618;51.166;10.322;2023-03-21T01:51:18;97486.81;;;6.94;73.77
26865;BME280;40618;51.166;10.322;2023-03-21T01:53:46;97483.44;;;6.90;73.62
26865;BME280;40618;51.166;10.322;2023-03-21T01:56:28;97486.91;;;6.88;73.40
26865;BME280;40618;51.166;10.322;2023-03-21T01:59:36;97483.53;;;6.84;73.71
26865;BME280;40618;51.166;10.322;2023-03-21T02:02:13;97480.25;;;6.74;73.38
26865;BME280;40618;51.166;10.322;2023-03-21T02:04:45;97476.84;;;6.74;74.15
26865;BME280;40618;51.166;10.322;2023-03-21T02:07:22;97473.41;;;6.72;74.28
26865;BME280;40618;51.166;10.322;2023-03-21T02:09:53;97471.69;;;6.72;74.31
26865;BME280;40618;51.166;10.322;2023-03-21T02:12:20;97475.94;;;6.75;73.93
26865;BME280;40618;51.166;10.322;2023-03-21T02:14:48;97468.25;;;6.73;74.01
26865;BME280;40618;51.166;10.322;2023-03-21T02:29:01;97448.53;;;6.74;74.64
26865;BME280;40618;51.166;10.322;2023-03-21T02:37:47;97451.00;;;6.78;74.53
26865;BME280;40618;51.166;10.322;2023-03-21T02:46:10;97441.59;;;6.77;74.46
26865;BME280;40618;51.166;10.322;2023-03-21T02:51:22;97438.19;;;6.77;74.95
26865;BME280;40618;51.166;10.322;2023-03-21T02:54:00;97441.66;;;6.74;74.83
26865;BME280;40618;51.166;10.322;2023-03-21T02:56:33;97441.69;;;6.71;74.99
26865;BME280;40618;51.166;10.322;2023-03-21T02:59:02;97438.22;;;6.74;75.02
26865;BME280;40618;51.166;10.322;2023-03-21T03:01:29;97433.09;;;6.74;75.01
26865;BME280;40618;51.166;10.322;2023-03-21T03:03:56;97432.19;;;6.75;74.65
26865;BME280;40618;51.166;10.322;2023-03-21T03:06:36;97435.66;;;6.74;75.00
26865;BME280;40618;51.166;10.322;2023-03-21T03:09:27;97429.63;;;6.75;74.67
26865;BME280;40618;51.166;10.322;2023-03-21T03:18:23;97425.31;;;6.77;74.90
26865;BME280;40618;51.166;10.322;2023-03-21T03:21:09;97426.13;;;6.79;74.91
26865;BME280;40618;51.166;10.322;2023-03-21T03:24:02;97425.25;;;6.80;74.38
26865;BME280;40618;51.166;10.322;2023-03-21T03:26:47;97418.41;;;6.79;74.48
26865;BME280;40618;51.166;10.322;2023-03-21T03:29:20;97420.16;;;6.77;74.51
26865;BME280;40618;51.166;10.322;2023-03-21T03:31:55;97418.50;;;6.73;74.96
26865;BME280;40618;51.166;10.322;2023-03-21T03:34:28;97418.50;;;6.73;74.90
26865;BME280;40618;51.166;10.322;2023-03-21T03:37:09;97411.69;;;6.70;74.62
26865;BME280;40618;51.166;10.322;2023-03-21T03:39:59;97417.63;;;6.72;74.67
26865;BME280;40618;51.166;10.322;2023-03-21T03:42:47;97414.19;;;6.73;74.96
26865;BME280;40618;51.166;10.322;2023-03-21T03:45:16;97418.47;;;6.74;74.76
26865;BME280;40618;51.166;10.322;2023-03-21T03:47:49;97412.47;;;6.75;74.71
26865;BME280;40618;51.166;10.322;2023-03-21T03:50:39;97415.84;;;6.77;74.90
26865;BME280;40618;51.166;10.322;2023-03-21T03:53:21;97415.81;;;6.79;74.99
26865;BME280;40618;51.166;10.322;2023-03-21T03:55:50;97408.13;;;6.77;74.52
26865;BME280;40618;51.166;10.322;2023-03-21T03:58:19;97411.59;;;6.75;74.67
26865;BME280;40618;51.166;10.322;2023-03-21T04:00:46;97412.44;;;6.77;74.88
26865;BME280;40618;51.166;10.322;2023-03-21T04:03:13;97410.72;;;6.76;74.55
26865;BME280;40618;51.166;10.322;2023-03-21T04:05:39;97409.88;;;6.77;74.75
26865;BME280;40618;51.166;10.322;2023-03-21T04:08:07;97410.72;;;6.77;75.04
26865;BME280;40618;51.166;10.322;2023-03-21T04:10:33;97408.13;;;6.77;74.66
26865;BME280;40618;51.166;10.322;2023-03-21T04:12:59;97409.00;;;6.78;75.04
26865;BME280;40618;51.166;10.322;2023-03-21T04:15:25;97403.84;;;6.78;74.59
26865;BME280;40618;51.166;10.322;2023-03-21T04:17:50;97411.56;;;6.78;74.69
26865;BME280;40618;51.166;10.322;2023-03-21T04:20:16;97411.56;;;6.78;74.18
26865;BME280;40618;51.166;10.322;2023-03-21T04:22:41;97420.09;;;6.80;74.85
26865;BME280;40618;51.166;10.322;2023-03-21T04:25:07;97406.41;;;6.80;74.65
26865;BME280;40618;51.166;10.322;2023-03-21T04:27:34;97414.09;;;6.81;74.98
26865;BME280;40618;51.166;10.322;2023-03-21T04:29:59;97415.81;;;6.82;75.03
26865;BME280;40618;51.166;10.322;2023-03-21T04:32:26;97411.50;;;6.83;74.86
26865;BME280;40618;51.166;10.322;2023-03-21T04:34:52;97424.34;;;6.84;74.60
26865;BME280;40618;51.166;10.322;2023-03-21T04:37:21;97416.59;;;6.84;74.46
26865;BME280;40618;51.166;10.322;2023-03-21T04:39:49;97412.31;;;6.85;74.98
26865;BME280;40618;51.166;10.322;2023-03-21T04:42:16;97412.31;;;6.85;74.67
26865;BME280;40618;51.166;10.322;2023-03-21T04:44:43;97408.88;;;6.86;74.62
26865;BME280;40618;51.166;10.322;2023-03-21T04:47:10;97414.00;;;6.86;75.09
26865;BME280;40618;51.166;10.322;2023-03-21T04:49:37;97416.59;;;6.86;74.52
26865;BME280;40618;51.166;10.322;2023-03-21T04:52:04;97408.06;;;6.84;74.58
26865;BME280;40618;51.166;10.322;2023-03-21T04:54:30;97402.91;;;6.84;74.99
26865;BME280;40618;51.166;10.322;2023-03-21T04:56:57;97397.75;;;6.84;74.67
26865;BME280;40618;51.166;10.322;2023-03-21T04:59:23;97402.94;;;6.82;74.49
26865;BME280;40618;51.166;10.322;2023-03-21T05:01:50;97404.63;;;6.82;74.77
26865;BME280;40618;51.166;10.322;2023-03-21T05:04:16;97406.41;;;6.80;75.00
26865;BME280;40618;51.166;10.322;2023-03-21T05:06:43;97402.94;;;6.81;74.55
26865;BME280;40618;51.166;10.322;2023-03-21T05:09:10;97397.78;;;6.82;75.02
26865;BME280;40618;51.166;10.322;2023-03-21T05:11:39;97401.19;;;6.83;74.88
26865;BME280;40618;51.166;10.322;2023-03-21T05:14:08;97403.78;;;6.83;74.66
26865;BME280;40618;51.166;10.322;2023-03-21T05:16:38;97401.19;;;6.83;75.06
26865;BME280;40618;51.166;10.322;2023-03-21T05:19:13;97401.22;;;6.81;74.69
26865;BME280;40618;51.166;10.322;2023-03-21T05:21:39;97397.78;;;6.81;74.67
26865;BME280;40618;51.166;10.322;2023-03-21T05:24:12;97394.38;;;6.80;74.51
26865;BME280;40618;51.166;10.322;2023-03-21T05:26:40;97405.50;;;6.81;74.81
26865;BME280;40618;51.166;10.322;2023-03-21T05:29:15;97405.50;;;6.81;74.37
26865;BME280;40618;51.166;10.322;2023-03-21T05:31:42;97408.09;;;6.79;74.55
26865;BME280;40618;51.166;10.322;2023-03-21T05:34:09;97399.56;;;6.77;74.78
26865;BME280;40618;51.166;10.322;2023-03-21T05:36:35;97406.44;;;6.76;74.57
26865;BME280;40618;51.166;10.322;2023-03-21T05:39:01;97403.84;;;6.76;75.03
26865;BME280;40618;51.166;10.322;2023-03-21T05:41:27;97397.84;;;6.77;75.34
26865;BME280;40618;51.166;10.322;2023-03-21T05:43:53;97399.53;;;6.78;74.67
26865;BME280;40618;51.166;10.322;2023-03-21T05:46:19;97397.81;;;6.79;75.00
26865;BME280;40618;51.166;10.322;2023-03-21T05:48:45;97401.28;;;6.78;74.62
26865;BME280;40618;51.166;10.322;2023-03-21T05:51:10;97400.38;;;6.79;74.64
26865;BME280;40618;51.166;10.322;2023-03-21T05:53:36;97400.38;;;6.79;74.92
26865;BME280;40618;51.166;10.322;2023-03-21T05:56:02;97401.28;;;6.78;74.89
26865;BME280;40618;51.166;10.322;2023-03-21T05:58:27;97404.69;;;6.78;74.74
26865;BME280;40618;51.166;10.322;2023-03-21T06:00:53;97408.97;;;6.80;74.48
26865;BME280;40618;51.166;10.322;2023-03-21T06:03:19;97412.41;;;6.78;74.90
26865;BME280;40618;51.166;10.322;2023-03-21T06:05:45;97409.84;;;6.78;74.62
26865;BME280;40618;51.166;10.322;2023-03-21T06:08:10;97402.13;;;6.78;74.80
26865;BME280;40618;51.166;10.322;2023-03-21T06:10:36;97401.25;;;6.80;74.53
26865;BME280;40618;51.166;10.322;2023-03-21T06:13:02;97405.50;;;6.82;74.45
26865;BME280;40618;51.166;10.322;2023-03-21T06:15:27;97402.94;;;6.81;74.64
26865;BME280;40618;51.166;10.322;2023-03-21T06:17:53;97402.06;;;6.82;75.06
26865;BME280;40618;51.166;10.322;2023-03-21T06:20:18;97396.06;;;6.81;74.87
26865;BME280;40618;51.166;10.322;2023-03-21T06:22:44;97396.06;;;6.81;74.91
26865;BME280;40618;51.166;10.322;2023-03-21T06:25:10;97397.81;;;6.79;74.80
26865;BME280;40618;51.166;10.322;2023-03-21T06:27:36;97394.41;;;6.78;75.07
26865;BME280;40618;51.166;10.322;2023-03-21T06:30:03;97396.97;;;6.78;75.11
26865;BME280;40618;51.166;10.322;2023-03-21T06:32:30;97394.41;;;6.78;75.03
26865;BME280;40618;51.166;10.322;2023-03-21T06:34:56;97399.53;;;6.78;74.82
26865;BME280;40618;51.166;10.322;2023-03-21T06:37:22;97398.72;;;6.78;74.82
26865;BME280;40618;51.166;10.322;2023-03-21T06:39:48;97402.03;;;6.83;74.74
26865;BME280;40618;51.166;10.322;2023-03-21T06:42:13;97395.19;;;6.84;74.91
26865;BME280;40618;51.166;10.322;2023-03-21T06:44:40;97407.16;;;6.85;74.45
26865;BME280;40618;51.166;10.322;2023-03-21T06:47:05;97402.00;;;6.85;74.72
26865;BME280;40618;51.166;10.322;2023-03-21T06:49:31;97405.41;;;6.87;74.92
26865;BME280;40618;51.166;10.322;2023-03-21T06:51:57;97406.22;;;6.89;75.12
26865;BME280;40618;51.166;10.322;2023-03-21T06:54:23;97391.63;;;6.91;75.08
26865;BME280;40618;51.166;10.322;2023-03-21T06:56:48;97393.28;;;6.95;74.63
26865;BME280;40618;51.166;10.322;2023-03-21T06:59:15;97395.78;;;6.98;75.12
26865;BME280;40618;51.166;10.322;2023-03-21T07:01:40;97399.19;;;7.00;74.65
26865;BME280;40618;51.166;10.322;2023-03-21T07:04:07;97394.00;;;7.03;74.84
26865;BME280;40618;51.166;10.322;2023-03-21T07:06:33;97394.84;;;7.05;74.69
26865;BME280;40618;51.166;10.322;2023-03-21T07:09:00;97399.88;;;7.10;74.82
26865;BME280;40618;51.166;10.322;2023-03-21T07:11:26;97389.59;;;7.10;74.69
26865;BME280;40618;51.166;10.322;2023-03-21T07:13:52;97393.03;;;7.09;74.84
26865;BME280;40618;51.166;10.322;2023-03-21T07:16:19;97393.88;;;7.11;74.23
26865;BME280;40618;51.166;10.322;2023-03-21T07:18:46;97394.69;;;7.13;74.77
26865;BME280;40618;51.166;10.322;2023-03-21T07:21:12;97396.38;;;7.14;74.47
26865;BME280;40618;51.166;10.322;2023-03-21T07:23:38;97401.53;;;7.14;74.50
26865;BME280;40618;51.166;10.322;2023-03-21T07:26:05;97401.41;;;7.20;74.59
26865;BME280;40618;51.166;10.322;2023-03-21T07:28:31;97397.00;;;7.28;75.17
26865;BME280;40618;51.166;10.322;2023-03-21T07:31:00;97399.50;;;7.33;74.63
26865;BME280;40618;51.166;10.322;2023-03-21T07:33:29;97399.53;;;7.32;74.78
26865;BME280;40618;51.166;10.322;2023-03-21T07:35:56;97398.66;;;7.33;74.35
26865;BME280;40618;51.166;10.322;2023-03-21T07:38:22;97391.75;;;7.33;74.62
26865;BME280;40618;51.166;10.322;2023-03-21T07:40:48;97391.78;;;7.32;74.41
26865;BME280;40618;51.166;10.322;2023-03-21T07:43:15;97387.41;;;7.35;74.82
26865;BME280;40618;51.166;10.322;2023-03-21T07:45:41;97390.72;;;7.42;74.86
26865;BME280;40618;51.166;10.322;2023-03-21T07:48:08;97388.81;;;7.52;74.48
26865;BME280;40618;51.166;10.322;2023-03-21T07:50:37;97388.69;;;7.59;74.97
26865;BME280;40618;51.166;10.322;2023-03-21T07:53:03;97389.41;;;7.68;74.85
26865;BME280;40618;51.166;10.322;2023-03-21T07:55:28;97385.84;;;7.73;74.61
26865;BME280;40618;51.166;10.322;2023-03-21T07:57:54;97386.72;;;7.74;75.02
26865;BME280;40618;51.166;10.322;2023-03-21T08:00:20;97389.25;;;7.75;74.11
26865;BME280;40618;51.166;10.322;2023-03-21T08:02:51;97387.47;;;7.77;74.82
26865;BME280;40618;51.166;10.322;2023-03-21T08:05:27;97378.88;;;7.78;74.58
26865;BME280;40618;51.166;10.322;2023-03-21T08:07:55;97380.50;;;7.83;74.17
26865;BME280;40618;51.166;10.322;2023-03-21T08:10:21;97388.88;;;7.94;74.19
26865;BME280;40618;51.166;10.322;2023-03-21T08:12:47;97383.72;;;7.94;74.30
26865;BME280;40618;51.166;10.322;2023-03-21T08:15:14;97381.16;;;7.92;74.30
26865;BME280;40618;51.166;10.322;2023-03-21T08:17:40;97382.00;;;7.94;73.96
26865;BME280;40618;51.166;10.322;2023-03-21T08:20:11;97379.31;;;7.99;74.40
26865;BME280;40618;51.166;10.322;2023-03-21T08:22:40;97381.88;;;7.99;74.47
26865;BME280;40618;51.166;10.322;2023-03-21T08:25:07;97376.78;;;7.97;74.15
26865;BME280;40618;51.166;10.322;2023-03-21T08:27:34;97379.31;;;7.99;74.10
26865;BME280;40618;51.166;10.322;2023-03-21T08:29:59;97380.16;;;8.01;74.24
26865;BME280;40618;51.166;10.322;2023-03-21T08:32:26;97391.19;;;8.06;73.86
26865;BME280;40618;51.166;10.322;2023-03-21T08:34:59;97396.16;;;8.16;73.91
26865;BME280;40618;51.166;10.322;2023-03-21T08:37:27;97397.63;;;8.27;74.28
26865;BME280;40618;51.166;10.322;2023-03-21T08:39:53;97400.06;;;8.35;74.87
26865;BME280;40618;51.166;10.322;2023-03-21T08:42:19;97393.00;;;8.42;74.64
26865;BME280;40618;51.166;10.322;2023-03-21T08:44:46;97385.16;;;8.48;73.85
26865;BME280;40618;51.166;10.322;2023-03-21T08:47:13;97384.16;;;8.54;73.62
26865;BME280;40618;51.166;10.322;2023-03-21T08:49:38;97380.59;;;8.59;73.93
26865;BME280;40618;51.166;10.322;2023-03-21T08:52:05;97392.50;;;8.65;74.15
26865;BME280;40618;51.166;10.322;2023-03-21T08:54:31;97385.41;;;8.75;74.03
26865;BME280;40618;51.166;10.322;2023-03-21T08:56:57;97379.16;;;8.84;74.54
26865;BME280;40618;51.166;10.322;2023-03-21T08:59:23;97382.50;;;8.89;73.83
26865;BME280;40618;51.166;10.322;2023-03-21T09:01:48;97385.81;;;8.94;74.49
26865;BME280;40618;51.166;10.322;2023-03-21T09:04:14;97379.63;;;9.01;74.58
26865;BME280;40618;51.166;10.322;2023-03-21T09:06:43;97381.44;;;8.96;73.76
26865;BME280;40618;51.166;10.322;2023-03-21T09:09:10;97378.69;;;9.04;73.82
26865;BME280;40618;51.166;10.322;2023-03-21T09:11:37;97384.56;;;9.10;73.45
26865;BME280;40618;51.166;10.322;2023-03-21T09:14:03;97387.09;;;9.12;73.88
26865;BME280;40618;51.166;10.322;2023-03-21T09:16:29;97382.63;;;9.19;74.26
26865;BME280;40618;51.166;10.322;2023-03-21T09:18:55;97385.84;;;9.27;73.64
26865;BME280;40618;51.166;10.322;2023-03-21T09:21:24;97385.84;;;9.27;74.02
26865;BME280;40618;51.166;10.322;2023-03-21T09:23:52;97379.59;;;9.36;73.82
26865;BME280;40618;51.166;10.322;2023-03-21T09:26:21;97375.00;;;9.45;73.33
26865;BME280;40618;51.166;10.322;2023-03-21T09:28:48;97384.56;;;9.43;73.59
26865;BME280;40618;51.166;10.322;2023-03-21T09:31:15;97384.59;;;9.42;73.41
26865;BME280;40618;51.166;10.322;2023-03-21T09:33:45;97391.41;;;9.44;73.51
26865;BME280;40618;51.166;10.322;2023-03-21T09:36:12;97392.03;;;9.53;73.13
26865;BME280;40618;51.166;10.322;2023-03-21T09:38:43;97390.31;;;9.53;73.09
26865;BME280;40618;51.166;10.322;2023-03-21T09:41:38;97390.28;;;9.55;73.08
26865;BME280;40618;51.166;10.322;2023-03-21T09:44:30;97380.00;;;9.53;73.51
26865;BME280;40618;51.166;10.322;2023-03-21T09:47:27;97384.19;;;9.57;73.89
26865;BME280;40618;51.166;10.322;2023-03-21T09:50:02;97383.06;;;9.66;73.60
26865;BME280;40618;51.166;10.322;2023-03-21T09:55:18;97372.91;;;9.91;73.69
26865;BME280;40618;51.166;10.322;2023-03-21T09:57:59;97370.22;;;10.24;74.19
26865;BME280;40618;51.166;10.322;2023-03-21T10:00:43;97368.34;;;10.58;72.90
26865;BME280;40618;51.166;10.322;2023-03-21T10:03:20;97367.41;;;10.60;73.26
26865;BME280;40618;51.166;10.322;2023-03-21T10:05:50;97371.41;;;10.71;72.73
26865;BME280;40618;51.166;10.322;2023-03-21T10:08:20;97372.13;;;10.76;72.55
26865;BME280;40618;51.166;10.322;2023-03-21T10:10:50;97366.34;;;10.66;72.30
26865;BME280;40618;51.166;10.322;2023-03-21T10:13:28;97361.38;;;10.60;72.74
26865;BME280;40618;51.166;10.322;2023-03-21T10:16:00;97365.72;;;10.59;72.32
26865;BME280;40618;51.166;10.322;2023-03-21T10:18:34;97361.19;;;10.66;72.76
26865;BME280;40618;51.166;10.322;2023-03-21T10:21:03;97360.00;;;10.76;72.41
26865;BME280;40618;51.166;10.322;2023-03-21T10:23:29;97357.41;;;10.76;72.61
26865;BME280;40618;51.166;10.322;2023-03-21T10:26:00;97345.69;;;10.91;72.30
26865;BME280;40618;51.166;10.322;2023-03-21T10:28:31;97345.47;;;10.99;72.04
26865;BME280;40618;51.166;10.322;2023-03-21T10:31:03;97344.97;;;11.13;72.20
26865;BME280;40618;51.166;10.322;2023-03-21T10:33:37;97342.47;;;11.10;72.45
26865;BME280;40618;51.166;10.322;2023-03-21T10:36:20;97339.97;;;11.33;72.45
26865;BME280;40618;51.166;10.322;2023-03-21T10:38:54;97329.94;;;11.48;71.61
26865;BME280;40618;51.166;10.322;2023-03-21T10:41:26;97327.91;;;11.56;71.85
26865;BME280;40618;51.166;10.322;2023-03-21T10:44:09;97328.16;;;11.50;71.54
26865;BME280;40618;51.166;10.322;2023-03-21T10:46:36;97329.09;;;11.47;71.39
26865;BME280;40618;51.166;10.322;2023-03-21T10:49:06;97332.69;;;11.43;71.35
26865;BME280;40618;51.166;10.322;2023-03-21T10:51:35;97338.66;;;11.45;71.82
26865;BME280;40618;51.166;10.322;2023-03-21T10:54:12;97340.47;;;11.43;71.35
26865;BME280;40618;51.166;10.322;2023-03-21T10:57:02;97335.41;;;11.40;71.11
26865;BME280;40618;51.166;10.322;2023-03-21T10:59:58;97329.66;;;11.32;70.84
26865;BME280;40618;51.166;10.322;2023-03-21T11:02:30;97331.06;;;11.41;71.27
26865;BME280;40618;51.166;10.322;2023-03-21T11:05:07;97323.50;;;11.34;70.75
26865;BME280;40618;51.166;10.322;2023-03-21T11:08:20;97332.13;;;11.35;71.03
26865;BME280;40618;51.166;10.322;2023-03-21T11:11:07;97327.34;;;11.48;71.33
26865;BME280;40618;51.166;10.322;2023-03-21T11:13:41;97327.53;;;11.67;71.21
26865;BME280;40618;51.166;10.322;2023-03-21T11:16:09;97328.25;;;11.71;70.97
26865;BME280;40618;51.166;10.322;2023-03-21T11:18:51;97321.69;;;11.62;70.71
26865;BME280;40618;51.166;10.322;2023-03-21T11:21:21;97320.25;;;11.53;70.93
26865;BME280;40618;51.166;10.322;2023-03-21T11:23:54;97322.06;;;11.51;70.96
26865;BME280;40618;51.166;10.322;2023-03-21T11:26:30;97324.75;;;11.48;70.66
26865;BME280;40618;51.166;10.322;2023-03-21T11:29:50;97330.16;;;11.42;70.89
26865;BME280;40618;51.166;10.322;2023-03-21T11:32:08;97319.16;;;11.35;70.84
26865;BME280;40618;51.166;10.322;2023-03-21T11:34:55;97314.16;;;11.30;70.81
26865;BME280;40618;51.166;10.322;2023-03-21T11:37:33;97313.22;;;11.31;70.79
26865;BME280;40618;51.166;10.322;2023-03-21T11:45:28;97307.97;;;11.34;70.92
26865;BME280;40618;51.166;10.322;2023-03-21T11:47:58;97295.78;;;11.37;70.54
26865;BME280;40618;51.166;10.322;2023-03-21T11:50:32;97296.72;;;11.34;70.60
26865;BME280;40618;51.166;10.322;2023-03-21T11:59:11;97284.22;;;11.45;70.41
26865;BME280;40618;51.166;10.322;2023-03-21T12:01:56;97287.59;;;11.47;70.84
26865;BME280;40618;51.166;10.322;2023-03-21T12:10:00;97287.16;;;11.60;70.60
26865;BME280;40618;51.166;10.322;2023-03-21T12:18:57;97282.94;;;11.57;70.66
26865;BME280;40618;51.166;10.322;2023-03-21T12:21:33;97282.94;;;11.57;70.20
26865;BME280;40618;51.166;10.322;2023-03-21T12:24:52;97277.69;;;11.59;70.18
26865;BME280;40618;51.166;10.322;2023-03-21T12:27:48;97264.63;;;11.62;70.38
26865;BME280;40618;51.166;10.322;2023-03-21T12:36:21;97264.63;;;11.62;70.72
26865;BME280;40618;51.166;10.322;2023-03-21T12:39:15;97277.81;;;11.56;69.86
26865;BME280;40618;51.166;10.322;2023-03-21T12:45:10;97266.38;;;11.38;70.27
26865;BME280;40618;51.166;10.322;2023-03-21T12:47:44;97275.09;;;11.35;70.33
26865;BME280;40618;51.166;10.322;2023-03-21T12:50:25;97269.22;;;11.30;70.50
26865;BME280;40618;51.166;10.322;2023-03-21T12:53:13;97269.22;;;11.30;70.45
26865;BME280;40618;51.166;10.322;2023-03-21T12:55:52;97276.38;;;11.23;70.01
26865;BME280;40618;51.166;10.322;2023-03-21T12:58:23;97268.59;;;11.23;70.54
26865;BME280;40618;51.166;10.322;2023-03-21T13:00:55;97272.25;;;11.17;70.48
26865;BME280;40618;51.166;10.322;2023-03-21T13:03:38;97270.50;;;11.18;70.40
26865;BME280;40618;51.166;10.322;2023-03-21T13:06:12;97256.75;;;11.16;70.25
26865;BME280;40618;51.166;10.322;2023-03-21T13:08:46;97262.91;;;11.13;70.56
26865;BME280;40618;51.166;10.322;2023-03-21T13:11:20;97257.81;;;11.10;70.71
26865;BME280;40618;51.166;10.322;2023-03-21T13:14:00;97253.59;;;11.08;70.24
26865;BME280;40618;51.166;10.322;2023-03-21T13:17:01;97257.97;;;11.06;70.69
26865;BME280;40618;51.166;10.322;2023-03-21T13:19:54;97257.13;;;11.05;70.79
26865;BME280;40618;51.166;10.322;2023-03-21T13:22:32;97254.78;;;10.99;70.68
26865;BME280;40618;51.166;10.322;2023-03-21T13:27:32;97240.31;;;10.92;70.59
26865;BME280;40618;51.166;10.322;2023-03-21T13:30:01;97243.84;;;10.91;71.02
26865;BME280;40618;51.166;10.322;2023-03-21T13:32:37;97240.38;;;10.90;71.17
26865;BME280;40618;51.166;10.322;2023-03-21T13:40:36;97237.72;;;10.92;71.27
26865;BME280;40618;51.166;10.322;2023-03-21T13:54:28;97228.31;;;10.89;71.47
26865;BME280;40618;51.166;10.322;2023-03-21T13:56:59;97224.06;;;10.88;71.43
26865;BME280;40618;51.166;10.322;2023-03-21T13:59:42;97219.72;;;10.89;71.18
26865;BME280;40618;51.166;10.322;2023-03-21T14:04:46;97212.97;;;10.84;71.61
26865;BME280;40618;51.166;10.322;2023-03-21T14:07:24;97214.03;;;10.79;71.52
26865;BME280;40618;51.166;10.322;2023-03-21T14:09:56;97220.16;;;10.76;71.34
26865;BME280;40618;51.166;10.322;2023-03-21T14:12:28;97213.16;;;10.78;71.47
26865;BME280;40618;51.166;10.322;2023-03-21T14:15:04;97206.13;;;10.82;72.05
26865;BME280;40618;51.166;10.322;2023-03-21T14:17:33;97209.63;;;10.81;71.70
26865;BME280;40618;51.166;10.322;2023-03-21T14:20:01;97208.91;;;10.77;71.92
26865;BME280;40618;51.166;10.322;2023-03-21T14:22:38;97200.38;;;10.74;71.95
26865;BME280;40618;51.166;10.322;2023-03-21T14:25:16;97203.91;;;10.71;72.23
26865;BME280;40618;51.166;10.322;2023-03-21T14:27:49;97199.69;;;10.69;72.54
26865;BME280;40618;51.166;10.322;2023-03-21T14:30:38;97199.84;;;10.64;72.04
26865;BME280;40618;51.166;10.322;2023-03-21T14:35:45;97189.03;;;10.53;72.63
26865;BME280;40618;51.166;10.322;2023-03-21T14:38:22;97186.59;;;10.48;72.73
26865;BME280;40618;51.166;10.322;2023-03-21T14:40:54;97187.75;;;10.39;72.90
26865;BME280;40618;51.166;10.322;2023-03-21T14:43:22;97176.78;;;10.31;73.50
26865;BME280;40618;51.166;10.322;2023-03-21T14:45:50;97181.38;;;10.23;73.66
26865;BME280;40618;51.166;10.322;2023-03-21T14:48:33;97188.59;;;10.13;73.84
26865;BME280;40618;51.166;10.322;2023-03-21T14:51:04;97182.75;;;10.06;74.07
26865;BME280;40618;51.166;10.322;2023-03-21T14:53:39;97176.00;;;10.02;73.75
26865;BME280;40618;51.166;10.322;2023-03-21T14:58:33;97179.38;;;10.04;74.34